createdAt,value
2018-02-10T00:00:02.517Z,86.31
2018-02-10T00:01:08.287Z,86.55
2018-02-10T00:02:14.440Z,86.91
2018-02-10T00:03:20.649Z,86.87
2018-02-10T00:04:26.840Z,86.70
2018-02-10T00:05:32.702Z,86.56
2018-02-10T00:06:38.865Z,86.44
2018-02-10T00:07:45.045Z,86.42
2018-02-10T00:08:51.237Z,86.32
2018-02-10T00:09:57.401Z,86.27
2018-02-10T00:11:03.533Z,86.18
2018-02-10T00:12:09.663Z,86.56
2018-02-10T00:13:16.745Z,86.55
2018-02-10T00:14:23.208Z,86.35
2018-02-10T00:15:29.416Z,86.95
2018-02-10T00:16:35.632Z,87.01
2018-02-10T00:17:41.803Z,87.08
2018-02-10T00:18:48.012Z,86.89
2018-02-10T00:19:54.200Z,86.71
2018-02-10T00:21:00.383Z,87.05
2018-02-10T00:22:06.289Z,86.95
2018-02-10T00:23:15.125Z,86.81
2018-02-10T00:24:21.953Z,86.67
2018-02-10T00:25:28.101Z,86.57
2018-02-10T00:26:34.260Z,86.63
2018-02-10T00:27:40.477Z,86.83
2018-02-10T00:28:46.623Z,87.25
2018-02-10T00:29:52.856Z,87.24
2018-02-10T00:30:59.014Z,87.33
2018-02-10T00:32:05.196Z,87.34
2018-02-10T00:33:11.377Z,87.20
2018-02-10T00:34:17.548Z,86.98
2018-02-10T00:35:23.732Z,87.06
2018-02-10T00:36:29.856Z,86.89
2018-02-10T00:37:35.996Z,86.66
2018-02-10T00:38:41.913Z,86.58
2018-02-10T00:39:48.098Z,86.52
2018-02-10T00:40:54.876Z,86.51
2018-02-10T00:42:01.072Z,86.74
2018-02-10T00:43:07.256Z,86.86
2018-02-10T00:44:18.670Z,86.98
2018-02-10T00:45:24.841Z,87.34
2018-02-10T00:46:30.989Z,87.55
2018-02-10T00:47:37.197Z,87.76
2018-02-10T00:48:43.409Z,87.49
2018-02-10T00:49:49.606Z,87.88
2018-02-10T00:50:55.793Z,87.77
2018-02-10T00:52:01.981Z,87.62
2018-02-10T00:53:09.229Z,87.40
2018-02-10T00:54:15.417Z,87.47
2018-02-10T00:55:21.653Z,87.66
2018-02-10T00:56:29.819Z,87.65
2018-02-10T00:57:35.980Z,88.07
2018-02-10T00:58:42.256Z,87.78
2018-02-10T00:59:48.491Z,87.47
2018-02-10T01:00:54.654Z,87.55
2018-02-10T01:02:00.853Z,87.42
2018-02-10T01:03:07.051Z,87.34
2018-02-10T01:04:13.230Z,87.15
2018-02-10T01:05:19.353Z,87.70
2018-02-10T01:06:25.287Z,87.83
2018-02-10T01:07:31.449Z,88.12
2018-02-10T01:08:37.656Z,88.32
2018-02-10T01:09:43.885Z,88.37
2018-02-10T01:10:50.024Z,88.26
2018-02-10T01:11:55.912Z,88.07
2018-02-10T01:13:08.974Z,88.05
2018-02-10T01:14:18.588Z,87.77
2018-02-10T01:15:24.765Z,87.54
2018-02-10T01:16:36.421Z,87.36
2018-02-10T01:17:43.362Z,87.33
2018-02-10T01:18:50.308Z,87.59
2018-02-10T01:19:56.475Z,87.57
2018-02-10T01:21:02.667Z,87.54
2018-02-10T01:22:08.817Z,87.51
2018-02-10T01:23:14.955Z,87.45
2018-02-10T01:24:21.128Z,88.09
2018-02-10T01:25:32.337Z,88.16
2018-02-10T01:26:38.594Z,88.24
2018-02-10T01:27:44.770Z,88.03
2018-02-10T01:28:54.849Z,87.90
2018-02-10T01:30:01.213Z,88.04
2018-02-10T01:31:08.375Z,88.00
2018-02-10T01:32:14.580Z,87.86
2018-02-10T01:33:20.813Z,88.00
2018-02-10T01:34:26.977Z,87.91
2018-02-10T01:35:33.115Z,87.65
2018-02-10T01:36:39.244Z,87.57
2018-02-10T01:37:45.403Z,87.82
2018-02-10T01:38:51.621Z,87.76
2018-02-10T01:39:57.795Z,87.72
2018-02-10T01:41:03.970Z,87.63
2018-02-10T01:42:10.162Z,87.43
2018-02-10T01:43:16.333Z,87.26
2018-02-10T01:44:22.521Z,87.18
2018-02-10T01:45:28.706Z,87.21
2018-02-10T01:46:34.813Z,87.44
2018-02-10T01:47:40.961Z,88.00
2018-02-10T01:48:47.101Z,88.28
2018-02-10T02:02:04.177Z,88.18
2018-02-10T02:03:10.304Z,88.41
2018-02-10T02:04:16.472Z,88.33
2018-02-10T02:05:27.721Z,88.14
2018-02-10T02:06:33.894Z,88.54
2018-02-10T02:07:40.023Z,88.75
2018-02-10T02:08:46.189Z,88.59
2018-02-10T02:09:52.383Z,88.63
2018-02-10T02:10:58.576Z,88.75
2018-02-10T02:12:04.693Z,88.76
2018-02-10T02:13:10.839Z,88.87
2018-02-10T02:14:17.457Z,89.09
2018-02-10T02:15:23.818Z,89.03
2018-02-10T02:16:36.186Z,88.90
2018-02-10T02:17:42.409Z,88.89
2018-02-10T02:18:49.190Z,88.94
2018-02-10T02:19:55.935Z,88.87
2018-02-10T02:21:02.194Z,88.92
2018-02-10T02:22:08.602Z,88.84
2018-02-10T02:23:14.765Z,88.84
2018-02-10T02:24:21.104Z,88.63
2018-02-10T02:25:27.360Z,88.46
2018-02-10T02:26:33.791Z,88.55
2018-02-10T02:27:39.964Z,88.60
2018-02-10T02:28:46.084Z,88.67
2018-02-10T02:29:52.228Z,88.54
2018-02-10T02:30:58.464Z,88.64
2018-02-10T02:32:04.683Z,88.61
2018-02-10T02:33:10.943Z,88.52
2018-02-10T02:34:17.772Z,88.45
2018-02-10T02:35:24.428Z,88.37
2018-02-10T02:36:30.647Z,88.48
2018-02-10T02:37:37.176Z,88.49
2018-02-10T02:38:43.555Z,88.43
2018-02-10T02:39:50.086Z,88.46
2018-02-10T02:40:56.327Z,88.59
2018-02-10T02:42:02.657Z,88.48
2018-02-10T02:43:08.838Z,88.66
2018-02-10T02:44:14.966Z,88.57
2018-02-10T02:45:21.764Z,88.60
2018-02-10T02:46:28.388Z,88.87
2018-02-10T02:47:35.031Z,88.89
2018-02-10T02:48:41.636Z,88.86
2018-02-10T02:49:47.432Z,88.89
2018-02-10T02:50:54.095Z,89.07
2018-02-10T02:52:00.322Z,89.33
2018-02-10T02:53:06.827Z,89.21
2018-02-10T02:54:18.536Z,89.35
2018-02-10T02:55:24.688Z,89.62
2018-02-10T02:56:31.182Z,89.71
2018-02-10T02:57:37.389Z,89.98
2018-02-10T02:58:43.613Z,89.61
2018-02-10T02:59:49.786Z,89.37
2018-02-10T03:00:56.099Z,89.11
2018-02-10T03:02:02.365Z,89.29
2018-02-10T03:03:08.626Z,89.23
2018-02-10T03:04:15.094Z,89.24
2018-02-10T03:05:21.281Z,89.32
2018-02-10T03:06:27.436Z,89.05
2018-02-10T03:07:34.021Z,88.92
2018-02-10T03:08:40.636Z,88.73
2018-02-10T03:09:47.162Z,88.74
2018-02-10T03:10:53.881Z,89.28
2018-02-10T03:12:00.342Z,89.24
2018-02-10T03:13:06.478Z,89.20
2018-02-10T03:14:13.065Z,89.08
2018-02-10T03:15:19.234Z,89.13
2018-02-10T03:16:25.430Z,89.17
2018-02-10T03:17:32.100Z,89.21
2018-02-10T03:18:38.560Z,89.18
2018-02-10T03:19:44.796Z,89.14
2018-02-10T03:20:51.881Z,89.23
2018-02-10T03:22:08.421Z,89.54
2018-02-10T03:23:14.610Z,89.54
2018-02-10T03:24:21.065Z,89.34
2018-02-10T03:25:27.243Z,89.48
2018-02-10T03:26:33.774Z,89.21
2018-02-10T03:27:40.036Z,89.67
2018-02-10T03:28:46.335Z,90.02
2018-02-10T03:29:52.516Z,89.93
2018-02-10T03:30:58.760Z,90.05
2018-02-10T03:32:04.930Z,89.94
2018-02-10T03:33:11.362Z,89.62
2018-02-10T03:34:17.541Z,89.47
2018-02-10T03:35:23.687Z,89.57
2018-02-10T03:36:29.929Z,89.50
2018-02-10T03:37:36.207Z,89.46
2018-02-10T03:38:42.348Z,89.43
2018-02-10T03:39:48.625Z,89.49
2018-02-10T03:41:00.106Z,89.21
2018-02-10T03:42:08.136Z,89.20
2018-02-10T03:43:15.087Z,89.37
2018-02-10T03:44:21.440Z,89.38
2018-02-10T03:45:27.958Z,89.46
2018-02-10T03:46:34.095Z,89.44
2018-02-10T03:47:40.771Z,89.51
2018-02-10T03:48:46.800Z,89.64
2018-02-10T03:49:53.300Z,89.55
2018-02-10T03:50:59.643Z,89.78
2018-02-10T03:52:05.826Z,90.08
2018-02-10T03:53:12.489Z,90.05
2018-02-10T03:54:19.121Z,89.83
2018-02-10T03:55:25.311Z,89.86
2018-02-10T03:56:31.763Z,89.96
2018-02-10T03:57:37.999Z,89.97
2018-02-10T03:58:44.203Z,89.90
2018-02-10T03:59:50.387Z,89.82
2018-02-10T04:00:56.536Z,89.61
2018-02-10T04:02:02.435Z,89.33
2018-02-10T04:03:09.392Z,89.69
2018-02-10T04:04:16.420Z,89.70
2018-02-10T04:05:23.232Z,90.05
2018-02-10T04:06:30.258Z,90.26
2018-02-10T04:07:37.215Z,90.37
2018-02-10T04:08:44.208Z,90.28
2018-02-10T04:09:51.237Z,90.42
2018-02-10T04:11:02.517Z,90.58
2018-02-10T04:12:08.691Z,90.31
2018-02-10T04:13:14.820Z,90.00
2018-02-10T04:14:21.055Z,89.87
2018-02-10T04:15:27.703Z,89.95
2018-02-10T04:16:34.726Z,89.83
2018-02-10T04:17:41.328Z,89.63
2018-02-10T04:18:48.297Z,89.66
2018-02-10T04:19:54.737Z,89.60
2018-02-10T04:21:00.887Z,89.79
2018-02-10T04:22:07.086Z,90.40
2018-02-10T04:23:13.276Z,90.38
2018-02-10T04:24:19.556Z,90.31
2018-02-10T04:25:26.361Z,90.22
2018-02-10T04:26:33.232Z,90.25
2018-02-10T04:27:40.057Z,90.38
2018-02-10T04:28:46.246Z,90.29
2018-02-10T04:29:52.436Z,90.12
2018-02-10T04:30:58.659Z,89.91
2018-02-10T04:32:04.871Z,89.94
2018-02-10T04:33:11.374Z,89.92
2018-02-10T04:34:18.088Z,89.85
2018-02-10T04:35:24.241Z,89.87
2018-02-10T04:36:30.509Z,90.22
2018-02-10T04:37:36.812Z,90.35
2018-02-10T04:38:43.943Z,90.25
2018-02-10T04:39:52.260Z,90.14
2018-02-10T04:40:58.668Z,89.85
2018-02-10T04:42:05.860Z,89.68
2018-02-10T04:43:12.025Z,89.68
2018-02-10T04:44:18.176Z,89.50
2018-02-10T04:45:24.328Z,89.42
2018-02-10T04:46:30.515Z,89.27
2018-02-10T04:47:36.702Z,89.22
2018-02-10T04:48:42.902Z,89.34
2018-02-10T04:49:49.105Z,89.25
2018-02-10T04:50:55.277Z,89.08
2018-02-10T04:52:01.465Z,89.19
2018-02-10T04:53:07.822Z,89.13
2018-02-10T04:54:14.004Z,89.07
2018-02-10T04:55:20.151Z,89.02
2018-02-10T04:56:26.307Z,88.91
2018-02-10T04:57:32.471Z,88.75
2018-02-10T04:58:38.694Z,88.60
2018-02-10T04:59:44.820Z,88.47
2018-02-10T05:00:51.017Z,88.27
2018-02-10T05:01:56.865Z,88.08
2018-02-10T05:03:04.066Z,88.02
2018-02-10T05:04:10.328Z,87.87
2018-02-10T05:05:16.467Z,87.65
2018-02-10T05:06:22.662Z,87.65
2018-02-10T05:07:28.913Z,87.38
2018-02-10T05:08:35.090Z,87.17
2018-02-10T05:09:41.246Z,87.09
2018-02-10T05:10:47.375Z,87.34
2018-02-10T05:11:53.529Z,87.36
2018-02-10T05:12:59.732Z,87.53
2018-02-10T05:14:05.872Z,87.72
2018-02-10T05:15:12.067Z,87.83
2018-02-10T05:16:18.229Z,87.87
2018-02-10T05:17:24.392Z,87.95
2018-02-10T05:18:30.623Z,87.96
2018-02-10T05:19:36.858Z,87.87
2018-02-10T05:20:43.003Z,87.80
2018-02-10T05:21:49.196Z,87.79
2018-02-10T05:22:55.672Z,87.83
2018-02-10T05:24:01.856Z,87.65
2018-02-10T05:25:07.993Z,88.37
2018-02-10T05:26:15.352Z,88.60
2018-02-10T05:27:21.502Z,88.44
2018-02-10T05:28:27.750Z,88.30
2018-02-10T05:29:33.899Z,88.30
2018-02-10T05:30:40.050Z,88.33
2018-02-10T05:31:46.213Z,88.31
2018-02-10T05:32:52.428Z,88.57
2018-02-10T05:33:58.621Z,88.56
2018-02-10T05:35:04.812Z,88.65
2018-02-10T05:36:10.987Z,88.92
2018-02-10T05:37:17.199Z,88.87
2018-02-10T05:38:23.534Z,88.90
2018-02-10T05:39:29.663Z,88.89
2018-02-10T05:40:35.865Z,88.70
2018-02-10T05:41:42.012Z,88.82
2018-02-10T05:42:48.270Z,88.79
2018-02-10T05:43:54.385Z,88.86
2018-02-10T05:45:00.545Z,88.71
2018-02-10T05:46:06.753Z,88.79
2018-02-10T05:47:13.337Z,88.80
2018-02-10T05:48:19.541Z,88.79
2018-02-10T05:49:25.830Z,88.71
2018-02-10T05:50:31.985Z,88.63
2018-02-10T05:51:38.233Z,88.61
2018-02-10T05:52:44.537Z,88.57
2018-02-10T05:53:50.727Z,88.42
2018-02-10T05:54:56.859Z,88.32
2018-02-10T05:56:03.087Z,88.64
2018-02-10T05:57:09.264Z,88.62
2018-02-10T05:58:15.821Z,88.60
2018-02-10T05:59:22.010Z,88.58
2018-02-10T06:00:28.204Z,88.41
2018-02-10T06:01:34.374Z,88.33
2018-02-10T06:02:41.637Z,88.30
2018-02-10T06:03:47.827Z,88.31
2018-02-10T06:04:53.979Z,89.05
2018-02-10T06:06:00.172Z,89.00
2018-02-10T06:07:06.357Z,88.80
2018-02-10T06:08:12.623Z,89.14
2018-02-10T06:09:18.798Z,89.55
2018-02-10T06:10:24.962Z,89.33
2018-02-10T06:11:31.392Z,89.24
2018-02-10T06:12:37.505Z,89.10
2018-02-10T06:13:43.682Z,89.06
2018-02-10T06:14:49.900Z,89.00
2018-02-10T06:15:56.070Z,88.99
2018-02-10T06:17:02.299Z,88.70
2018-02-10T06:18:08.476Z,88.54
2018-02-10T06:19:14.634Z,88.34
2018-02-10T06:20:20.836Z,88.21
2018-02-10T06:21:27.059Z,88.12
2018-02-10T06:22:33.044Z,87.86
2018-02-10T06:23:38.900Z,87.76
2018-02-10T06:24:45.105Z,87.52
2018-02-10T06:25:51.224Z,87.25
2018-02-10T06:26:57.362Z,87.12
2018-02-10T06:28:03.533Z,86.85
2018-02-10T06:29:09.720Z,86.71
2018-02-10T06:30:16.140Z,86.63
2018-02-10T06:31:22.341Z,86.67
2018-02-10T06:32:28.539Z,86.65
2018-02-10T06:33:34.722Z,86.63
2018-02-10T06:34:40.893Z,86.71
2018-02-10T06:35:47.040Z,86.81
2018-02-10T06:36:53.208Z,86.90
2018-02-10T06:37:59.399Z,86.86
2018-02-10T06:39:04.881Z,86.77
2018-02-10T06:40:11.085Z,86.58
2018-02-10T06:41:17.268Z,86.64
2018-02-10T06:42:23.476Z,86.53
2018-02-10T06:43:34.909Z,86.48
2018-02-10T06:44:41.084Z,86.40
2018-02-10T06:45:47.208Z,86.30
2018-02-10T06:46:54.619Z,86.12
2018-02-10T06:48:00.831Z,85.84
2018-02-10T06:49:07.136Z,85.81
2018-02-10T06:50:13.350Z,85.92
2018-02-10T06:51:19.585Z,85.89
2018-02-10T06:52:26.008Z,85.87
2018-02-10T06:53:32.197Z,85.83
2018-02-10T06:54:38.384Z,85.84
2018-02-10T06:55:44.577Z,85.85
2018-02-10T06:56:50.759Z,85.81
2018-02-10T06:57:57.975Z,85.79
2018-02-10T06:59:04.519Z,85.73
2018-02-10T07:00:10.524Z,85.83
2018-02-10T07:01:16.694Z,85.71
2018-02-10T07:02:23.021Z,85.66
2018-02-10T07:03:29.299Z,85.53
2018-02-10T07:04:35.498Z,85.69
2018-02-10T07:05:41.715Z,85.59
2018-02-10T07:06:47.925Z,85.47
2018-02-10T07:07:54.076Z,85.49
2018-02-10T07:09:00.328Z,85.54
2018-02-10T07:10:06.508Z,85.51
2018-02-10T07:11:12.733Z,85.50
2018-02-10T07:12:18.563Z,85.40
2018-02-10T07:13:24.760Z,85.33
2018-02-10T07:14:30.941Z,85.33
2018-02-10T07:15:37.151Z,85.33
2018-02-10T07:16:43.286Z,85.34
2018-02-10T07:17:49.497Z,85.68
2018-02-10T07:18:55.709Z,86.20
2018-02-10T07:20:01.983Z,86.28
2018-02-10T07:21:07.913Z,86.27
2018-02-10T07:22:14.138Z,86.03
2018-02-10T07:23:20.324Z,85.79
2018-02-10T07:24:26.536Z,85.47
2018-02-10T07:25:32.901Z,85.53
2018-02-10T07:26:39.019Z,85.31
2018-02-10T07:27:45.225Z,85.11
2018-02-10T07:28:51.423Z,84.75
2018-02-10T07:29:57.654Z,84.56
2018-02-10T07:31:03.815Z,84.19
2018-02-10T07:32:10.281Z,84.17
2018-02-10T07:33:16.439Z,83.85
2018-02-10T07:34:22.648Z,83.89
2018-02-10T07:35:28.829Z,83.94
2018-02-10T07:36:35.026Z,83.89
2018-02-10T07:37:41.163Z,83.87
2018-02-10T07:38:47.356Z,83.92
2018-02-10T07:39:53.513Z,83.67
2018-02-10T07:40:59.665Z,83.55
2018-02-10T07:42:05.919Z,83.55
2018-02-10T07:43:12.150Z,83.53
2018-02-10T07:44:18.268Z,83.47
2018-02-10T07:45:24.472Z,83.32
2018-02-10T07:46:30.695Z,83.14
2018-02-10T07:47:36.925Z,83.09
2018-02-10T07:48:43.207Z,83.06
2018-02-10T07:49:49.396Z,82.60
2018-02-10T07:50:55.592Z,82.66
2018-02-10T07:52:01.765Z,82.46
2018-02-10T07:53:07.971Z,82.85
2018-02-10T07:54:14.160Z,82.70
2018-02-10T07:55:20.385Z,82.80
2018-02-10T07:56:26.578Z,82.45
2018-02-10T07:57:32.792Z,82.27
2018-02-10T07:58:39.027Z,82.74
2018-02-10T07:59:45.183Z,82.75
2018-02-10T08:00:51.367Z,82.27
2018-02-10T08:01:57.688Z,82.00
2018-02-10T08:03:03.829Z,81.92
2018-02-10T08:04:10.059Z,81.89
2018-02-10T08:05:16.212Z,81.74
2018-02-10T08:06:22.435Z,81.87
2018-02-10T08:07:28.627Z,81.54
2018-02-10T08:08:34.856Z,81.61
2018-02-10T08:09:41.107Z,81.65
2018-02-10T08:10:47.284Z,81.66
2018-02-10T08:11:53.817Z,81.68
2018-02-10T08:12:59.972Z,81.58
2018-02-10T08:14:06.154Z,81.43
2018-02-10T08:15:12.369Z,81.66
2018-02-10T08:16:18.596Z,81.58
2018-02-10T08:17:24.716Z,81.37
2018-02-10T08:18:30.901Z,81.50
2018-02-10T08:19:37.074Z,81.27
2018-02-10T08:20:43.613Z,81.36
2018-02-10T08:21:49.761Z,81.20
2018-02-10T08:22:55.962Z,81.28
2018-02-10T08:24:02.174Z,81.20
2018-02-10T08:25:08.343Z,81.25
2018-02-10T08:26:19.557Z,81.26
2018-02-10T08:27:25.688Z,81.35
2018-02-10T08:28:31.890Z,81.22
2018-02-10T08:29:38.072Z,81.11
2018-02-10T08:30:44.286Z,81.04
2018-02-10T08:31:50.500Z,80.94
2018-02-10T08:32:56.708Z,80.75
2018-02-10T08:34:03.008Z,80.58
2018-02-10T08:35:09.216Z,80.66
2018-02-10T08:36:15.356Z,80.68
2018-02-10T08:37:21.547Z,80.65
2018-02-10T08:38:27.759Z,80.68
2018-02-10T08:39:33.868Z,80.72
2018-02-10T08:40:40.102Z,80.80
2018-02-10T08:41:46.304Z,80.88
2018-02-10T08:42:52.660Z,80.90
2018-02-10T08:43:58.823Z,80.81
2018-02-10T08:45:04.259Z,80.75
2018-02-10T08:46:10.422Z,80.83
2018-02-10T08:47:16.612Z,80.77
2018-02-10T08:48:22.740Z,80.80
2018-02-10T08:49:28.937Z,80.85
2018-02-10T08:50:35.131Z,80.83
2018-02-10T08:51:41.235Z,80.89
2018-02-10T08:52:47.428Z,80.96
2018-02-10T08:53:53.656Z,81.06
2018-02-10T08:54:59.833Z,81.01
2018-02-10T08:56:06.018Z,80.97
2018-02-10T08:57:12.187Z,81.15
2018-02-10T08:58:18.355Z,81.36
2018-02-10T08:59:24.616Z,81.43
2018-02-10T09:00:30.840Z,81.84
2018-02-10T09:01:36.996Z,81.87
2018-02-10T09:02:43.120Z,82.12
2018-02-10T09:03:49.345Z,82.09
2018-02-10T09:04:55.527Z,81.93
2018-02-10T09:06:01.818Z,81.96
2018-02-10T09:07:07.976Z,82.00
2018-02-10T09:08:14.131Z,82.03
2018-02-10T09:09:20.292Z,82.06
2018-02-10T09:10:26.540Z,82.32
2018-02-10T09:11:32.753Z,82.23
2018-02-10T09:12:38.944Z,82.68
2018-02-10T09:13:45.096Z,82.67
2018-02-10T09:14:51.309Z,82.58
2018-02-10T09:15:57.540Z,82.60
2018-02-10T09:17:03.698Z,82.54
2018-02-10T09:18:09.931Z,82.55
2018-02-10T09:19:16.108Z,82.62
2018-02-10T09:20:22.347Z,82.37
2018-02-10T09:21:28.746Z,82.28
2018-02-10T09:22:35.023Z,81.84
2018-02-10T09:23:41.195Z,81.41
2018-02-10T09:24:47.396Z,81.30
2018-02-10T09:25:53.590Z,80.96
2018-02-10T09:26:59.772Z,80.35
2018-02-10T09:28:06.089Z,80.69
2018-02-10T09:29:12.311Z,80.70
2018-02-10T09:30:18.494Z,80.46
2018-02-10T09:31:24.711Z,80.75
2018-02-10T09:32:30.943Z,80.42
2018-02-10T09:33:37.145Z,80.26
2018-02-10T09:34:43.360Z,80.07
2018-02-10T09:35:49.599Z,80.28
2018-02-10T09:36:55.816Z,80.32
2018-02-10T09:38:01.903Z,80.08
2018-02-10T09:39:08.148Z,79.66
2018-02-10T09:40:14.318Z,79.90
2018-02-10T09:41:20.508Z,80.00
2018-02-10T09:42:26.850Z,79.55
2018-02-10T09:43:33.118Z,79.49
2018-02-10T09:44:39.293Z,79.26
2018-02-10T09:45:45.523Z,78.84
2018-02-10T09:46:57.901Z,78.07
2018-02-10T09:48:04.186Z,77.94
2018-02-10T09:49:10.424Z,77.71
2018-02-10T09:50:17.261Z,77.46
2018-02-10T09:51:23.947Z,77.93
2018-02-10T09:52:30.200Z,77.94
2018-02-10T09:53:42.115Z,78.28
2018-02-10T09:54:48.367Z,77.85
2018-02-10T09:55:54.596Z,77.79
2018-02-10T09:57:00.755Z,77.82
2018-02-10T09:58:06.949Z,78.29
2018-02-10T09:59:13.204Z,78.39
2018-02-10T10:00:19.504Z,78.04
2018-02-10T10:01:25.668Z,77.94
2018-02-10T10:02:31.860Z,78.27
2018-02-10T10:03:38.119Z,78.42
2018-02-10T10:04:44.628Z,78.57
2018-02-10T10:05:50.850Z,77.92
2018-02-10T10:06:57.019Z,77.76
2018-02-10T10:08:03.281Z,78.04
2018-02-10T10:09:09.192Z,77.99
2018-02-10T10:10:15.468Z,77.57
2018-02-10T10:11:21.661Z,77.61
2018-02-10T10:12:27.879Z,77.48
2018-02-10T10:13:34.110Z,77.28
2018-02-10T10:14:40.321Z,76.86
2018-02-10T10:15:46.570Z,76.80
2018-02-10T10:16:52.800Z,77.00
2018-02-10T10:17:58.687Z,76.77
2018-02-10T10:19:05.204Z,76.40
2018-02-10T10:20:11.426Z,76.64
2018-02-10T10:21:17.631Z,76.23
2018-02-10T10:22:23.583Z,75.71
2018-02-10T10:23:29.796Z,75.68
2018-02-10T10:24:36.061Z,75.19
2018-02-10T10:25:42.236Z,74.88
2018-02-10T10:26:48.490Z,74.39
2018-02-10T10:27:54.706Z,73.74
2018-02-10T10:29:00.930Z,73.66
2018-02-10T10:31:41.532Z,73.55
2018-02-10T10:32:47.711Z,73.52
2018-02-10T10:33:53.899Z,73.37
2018-02-10T10:35:00.369Z,72.53
2018-02-10T10:36:06.589Z,72.60
2018-02-10T10:37:12.780Z,73.31
2018-02-10T10:38:19.115Z,73.00
2018-02-10T10:39:25.273Z,72.79
2018-02-10T10:40:32.161Z,72.55
2018-02-10T10:41:38.523Z,73.16
2018-02-10T10:42:44.694Z,73.97
2018-02-10T10:43:50.937Z,73.99
2018-02-10T10:44:57.254Z,73.77
2018-02-10T10:46:03.505Z,73.39
2018-02-10T10:47:09.754Z,73.67
2018-02-10T10:48:15.957Z,73.62
2018-02-10T10:49:22.883Z,73.79
2018-02-10T10:50:29.092Z,73.98
2018-02-10T10:51:35.013Z,74.44
2018-02-10T10:52:41.206Z,75.03
2018-02-10T10:53:47.419Z,74.77
2018-02-10T10:54:53.636Z,74.42
2018-02-10T10:55:59.993Z,74.52
2018-02-10T10:57:06.200Z,74.98
2018-02-10T10:58:12.087Z,74.92
2018-02-10T10:59:18.669Z,74.61
2018-02-10T11:00:24.897Z,73.14
2018-02-10T11:01:31.727Z,72.33
2018-02-10T11:02:37.864Z,72.46
2018-02-10T11:03:44.414Z,71.94
2018-02-10T11:04:50.665Z,71.76
2018-02-10T11:05:57.743Z,71.22
2018-02-10T11:07:04.593Z,70.47
2018-02-10T11:08:10.796Z,69.74
2018-02-10T11:09:17.006Z,69.02
2018-02-10T11:10:25.266Z,68.69
2018-02-10T11:11:31.542Z,68.45
2018-02-10T11:12:38.231Z,68.50
2018-02-10T11:13:44.487Z,68.32
2018-02-10T11:14:50.824Z,68.51
2018-02-10T11:15:57.260Z,68.78
2018-02-10T11:17:03.617Z,69.49
2018-02-10T11:18:09.980Z,69.15
2018-02-10T11:19:16.227Z,68.59
2018-02-10T11:20:22.859Z,68.57
2018-02-10T11:21:29.140Z,68.52
2018-02-10T11:22:35.376Z,68.51
2018-02-10T11:23:42.395Z,68.76
2018-02-10T11:24:48.935Z,68.44
2018-02-10T11:26:07.429Z,68.24
2018-02-10T11:27:13.707Z,68.52
2018-02-10T11:28:19.933Z,68.14
2018-02-10T11:29:26.940Z,67.91
2018-02-10T11:30:33.237Z,67.85
2018-02-10T11:31:40.478Z,67.57
2018-02-10T11:32:47.270Z,67.53
2018-02-10T11:33:58.376Z,67.33
2018-02-10T11:35:04.641Z,67.64
2018-02-10T11:36:10.995Z,67.15
2018-02-10T11:37:17.966Z,67.14
2018-02-10T11:38:24.240Z,67.14
2018-02-10T11:39:30.575Z,67.01
2018-02-10T11:40:37.018Z,66.85
2018-02-10T11:41:43.284Z,67.06
2018-02-10T11:42:49.519Z,67.55
2018-02-10T11:43:55.545Z,67.56
2018-02-10T11:45:01.789Z,67.83
2018-02-10T11:46:08.047Z,68.20
2018-02-10T11:47:15.171Z,67.68
2018-02-10T11:48:21.423Z,67.69
2018-02-10T11:49:27.921Z,67.52
2018-02-10T11:50:33.879Z,67.26
2018-02-10T11:51:40.866Z,67.99
2018-02-10T11:52:47.241Z,68.67
2018-02-10T11:53:53.521Z,68.44
2018-02-10T11:55:00.068Z,68.61
2018-02-10T11:56:06.398Z,68.25
2018-02-10T11:57:13.579Z,67.90
2018-02-10T11:58:19.677Z,67.19
2018-02-10T11:59:26.199Z,67.48
2018-02-10T12:00:32.859Z,67.27
2018-02-10T12:01:39.405Z,66.85
2018-02-10T12:02:45.779Z,66.52
2018-02-10T12:03:51.986Z,66.14
2018-02-10T12:04:58.363Z,66.32
2018-02-10T12:06:04.679Z,66.26
2018-02-10T12:07:10.967Z,65.43
2018-02-10T12:08:23.335Z,64.93
2018-02-10T12:09:30.394Z,64.29
2018-02-10T12:10:36.670Z,64.10
2018-02-10T12:11:42.841Z,63.90
2018-02-10T12:12:49.322Z,63.53
2018-02-10T12:13:55.692Z,63.29
2018-02-10T12:15:01.962Z,63.14
2018-02-10T12:16:08.276Z,63.13
2018-02-10T12:17:16.987Z,62.14
2018-02-10T12:18:25.464Z,62.59
2018-02-10T12:19:32.108Z,62.43
2018-02-10T12:20:38.718Z,62.34
2018-02-10T12:21:45.349Z,62.27
2018-02-10T12:22:51.631Z,62.33
2018-02-10T12:23:58.015Z,62.29
2018-02-10T12:25:03.757Z,62.50
2018-02-10T12:26:10.097Z,62.50
2018-02-10T12:27:16.748Z,63.05
2018-02-10T12:28:22.956Z,63.21
2018-02-10T12:29:29.338Z,63.71
2018-02-10T12:30:35.621Z,64.01
2018-02-10T12:31:41.912Z,64.47
2018-02-10T12:32:48.151Z,64.57
2018-02-10T12:33:55.141Z,65.12
2018-02-10T12:35:01.730Z,64.63
2018-02-10T12:36:07.851Z,63.49
2018-02-10T12:37:14.719Z,62.67
2018-02-10T12:38:21.099Z,63.23
2018-02-10T12:39:28.181Z,63.85
2018-02-10T12:40:34.612Z,63.18
2018-02-10T12:41:40.544Z,63.28
2018-02-10T12:42:46.814Z,63.29
2018-02-10T12:43:53.159Z,63.01
2018-02-10T12:44:59.448Z,63.21
2018-02-10T12:46:05.878Z,63.45
2018-02-10T12:47:12.267Z,62.70
2018-02-10T12:48:24.574Z,62.60
2018-02-10T12:49:30.658Z,62.90
2018-02-10T12:50:36.882Z,62.92
2018-02-10T12:51:43.147Z,62.87
2018-02-10T12:52:49.572Z,62.63
2018-02-10T12:53:57.189Z,62.10
2018-02-10T12:55:03.505Z,62.19
2018-02-10T12:56:09.938Z,62.36
2018-02-10T12:57:16.330Z,62.34
2018-02-10T12:58:22.649Z,62.48
2018-02-10T12:59:28.934Z,62.77
2018-02-10T13:00:35.233Z,62.91
2018-02-10T13:01:42.414Z,62.77
2018-02-10T13:02:48.736Z,62.78
2018-02-10T13:03:55.729Z,62.93
2018-02-10T13:05:02.201Z,63.22
2018-02-10T13:06:08.488Z,63.21
2018-02-10T13:07:14.832Z,63.23
2018-02-10T13:08:21.301Z,62.95
2018-02-10T13:09:27.763Z,63.07
2018-02-10T13:10:34.068Z,63.31
2018-02-10T13:11:40.735Z,63.67
2018-02-10T13:12:47.057Z,63.66
2018-02-10T13:13:55.057Z,64.28
2018-02-10T13:15:01.528Z,64.22
2018-02-10T13:16:07.869Z,63.96
2018-02-10T13:17:17.971Z,64.11
2018-02-10T13:18:24.421Z,64.73
2018-02-10T13:19:30.811Z,64.88
2018-02-10T13:20:37.493Z,64.92
2018-02-10T13:21:43.878Z,64.95
2018-02-10T13:22:50.211Z,64.99
2018-02-10T13:23:56.670Z,64.95
2018-02-10T13:25:03.238Z,65.00
2018-02-10T13:26:10.228Z,65.04
2018-02-10T13:27:21.372Z,65.38
2018-02-10T13:28:27.542Z,65.50
2018-02-10T13:29:34.277Z,66.08
2018-02-10T13:30:41.434Z,65.87
2018-02-10T13:31:48.641Z,65.78
2018-02-10T13:32:54.696Z,65.39
2018-02-10T13:34:01.019Z,65.67
2018-02-10T13:35:07.251Z,65.86
2018-02-10T13:36:13.479Z,65.26
2018-02-10T13:37:19.677Z,65.50
2018-02-10T13:38:26.097Z,65.15
2018-02-10T13:39:32.485Z,65.20
2018-02-10T13:40:39.732Z,65.20
2018-02-10T13:41:45.999Z,65.29
2018-02-10T13:42:52.578Z,65.30
2018-02-10T13:43:58.871Z,65.45
2018-02-10T13:45:05.634Z,65.59
2018-02-10T13:46:11.552Z,65.75
2018-02-10T13:47:17.900Z,65.65
2018-02-10T13:48:35.114Z,65.54
2018-02-10T13:49:41.524Z,65.23
2018-02-10T13:50:47.938Z,65.56
2018-02-10T13:51:55.111Z,65.29
2018-02-10T13:53:01.517Z,65.45
2018-02-10T13:54:07.827Z,65.45
2018-02-10T13:55:14.195Z,65.35
2018-02-10T13:56:20.895Z,65.37
2018-02-10T13:57:27.313Z,65.20
2018-02-10T13:58:34.295Z,65.25
2018-02-10T13:59:40.592Z,65.57
2018-02-10T14:00:46.968Z,65.83
2018-02-10T14:01:54.489Z,65.68
2018-02-10T14:03:01.601Z,66.11
2018-02-10T14:04:07.840Z,66.25
2018-02-10T14:05:14.110Z,66.14
2018-02-10T14:06:20.366Z,66.21
2018-02-10T14:07:26.703Z,66.50
2018-02-10T14:08:33.248Z,66.34
2018-02-10T14:09:39.335Z,66.37
2018-02-10T14:10:46.529Z,66.13
2018-02-10T14:11:53.793Z,66.12
2018-02-10T14:13:01.001Z,66.50
2018-02-10T14:14:07.972Z,66.63
2018-02-10T14:15:14.765Z,66.68
2018-02-10T14:16:22.289Z,66.53
2018-02-10T14:17:30.974Z,66.44
2018-02-10T14:18:39.035Z,66.89
2018-02-10T14:19:45.783Z,66.86
2018-02-10T14:20:53.525Z,66.76
2018-02-10T14:22:00.937Z,67.18
2018-02-10T14:23:07.737Z,67.19
2018-02-10T14:24:20.072Z,66.80
2018-02-10T14:25:26.869Z,66.86
2018-02-10T14:26:34.140Z,66.90
2018-02-10T14:27:41.636Z,67.42
2018-02-10T14:28:48.735Z,67.51
2018-02-10T14:29:55.714Z,67.46